Ruso, North Dakota
Current Conditions -  °F | °C
As of 2:54 AM on Wednesday 22 Oct 2014 (Local Time) from KMOT Reporting Station
Clear Clear  
Wind Chill: 17°   Ceiling: Unl
Heat Index: 17°   Visibility: 10mi
Dew Point:   Wind: 6mph
Humidity: 50%   Direction: 140°SE
Pressure: 29.61"   Gusts: NA
Location:  47.84°N, 100.93°W
Report Text: KMOT 220754Z AUTO 14005KT 10SM CLR 17/07 A2961 RMK AO2 LTG DSNT NE AND E SLP023 T01720067
Loading
Personal Weather Stations






























Interactive Weather Map
Tropical Storm Tracking
New forecast layout! Learn more

10-Day Weather Forecast

Advertisements
Track Severe Weather on mobile